sensor_id;sensor_type;location;lat;lon;timestamp;P1;durP1;ratioP1;P2;durP2;ratioP2
66593;SDS011;53450;42.584;23.366;2023-11-21T00:02:07;3.93;;;3.10;;
66593;SDS011;53450;42.584;23.366;2023-11-21T00:04:32;5.00;;;2.67;;
66593;SDS011;53450;42.584;23.366;2023-11-21T00:06:58;3.40;;;3.10;;
66593;SDS011;53450;42.584;23.366;2023-11-21T00:09:23;4.60;;;2.50;;
66593;SDS011;53450;42.584;23.366;2023-11-21T00:11:49;3.37;;;2.57;;
66593;SDS011;53450;42.584;23.366;2023-11-21T00:14:14;4.07;;;2.43;;
66593;SDS011;53450;42.584;23.366;2023-11-21T00:16:40;5.40;;;3.00;;
66593;SDS011;53450;42.584;23.366;2023-11-21T00:19:06;7.27;;;3.87;;
66593;SDS011;53450;42.584;23.366;2023-11-21T00:21:32;5.97;;;4.20;;
66593;SDS011;53450;42.584;23.366;2023-11-21T00:23:57;4.40;;;3.10;;
66593;SDS011;53450;42.584;23.366;2023-11-21T00:26:23;3.90;;;2.87;;
66593;SDS011;53450;42.584;23.366;2023-11-21T00:28:59;2.70;;;2.50;;
66593;SDS011;53450;42.584;23.366;2023-11-21T00:31:25;2.60;;;2.40;;
66593;SDS011;53450;42.584;23.366;2023-11-21T00:33:50;5.50;;;2.43;;
66593;SDS011;53450;42.584;23.366;2023-11-21T00:36:16;4.47;;;2.97;;
66593;SDS011;53450;42.584;23.366;2023-11-21T00:38:41;7.57;;;2.80;;
66593;SDS011;53450;42.584;23.366;2023-11-21T00:41:07;5.43;;;2.53;;
66593;SDS011;53450;42.584;23.366;2023-11-21T00:43:32;5.23;;;2.10;;
66593;SDS011;53450;42.584;23.366;2023-11-21T00:46:03;3.90;;;1.83;;
66593;SDS011;53450;42.584;23.366;2023-11-21T00:48:30;2.10;;;1.87;;
66593;SDS011;53450;42.584;23.366;2023-11-21T00:50:56;3.47;;;3.00;;
66593;SDS011;53450;42.584;23.366;2023-11-21T00:53:21;2.17;;;1.97;;
66593;SDS011;53450;42.584;23.366;2023-11-21T00:55:47;2.70;;;1.90;;
66593;SDS011;53450;42.584;23.366;2023-11-21T00:58:12;3.23;;;1.90;;
66593;SDS011;53450;42.584;23.366;2023-11-21T01:00:38;3.43;;;2.93;;
66593;SDS011;53450;42.584;23.366;2023-11-21T01:03:07;2.77;;;2.43;;
66593;SDS011;53450;42.584;23.366;2023-11-21T01:05:34;3.50;;;1.93;;
66593;SDS011;53450;42.584;23.366;2023-11-21T01:08:00;1.73;;;1.57;;
66593;SDS011;53450;42.584;23.366;2023-11-21T01:10:25;6.13;;;1.80;;
66593;SDS011;53450;42.584;23.366;2023-11-21T01:12:51;1.50;;;1.40;;
66593;SDS011;53450;42.584;23.366;2023-11-21T01:15:16;2.00;;;1.87;;
66593;SDS011;53450;42.584;23.366;2023-11-21T01:17:42;4.77;;;1.50;;
66593;SDS011;53450;42.584;23.366;2023-11-21T01:20:08;2.03;;;1.60;;
66593;SDS011;53450;42.584;23.366;2023-11-21T01:22:37;1.80;;;1.70;;
66593;SDS011;53450;42.584;23.366;2023-11-21T01:25:02;2.23;;;1.80;;
66593;SDS011;53450;42.584;23.366;2023-11-21T01:27:32;3.47;;;2.40;;
66593;SDS011;53450;42.584;23.366;2023-11-21T01:29:59;3.57;;;1.93;;
66593;SDS011;53450;42.584;23.366;2023-11-21T01:32:24;2.00;;;1.73;;
66593;SDS011;53450;42.584;23.366;2023-11-21T01:34:50;3.33;;;2.10;;
66593;SDS011;53450;42.584;23.366;2023-11-21T01:37:16;1.93;;;1.70;;
66593;SDS011;53450;42.584;23.366;2023-11-21T01:39:43;2.67;;;2.30;;
66593;SDS011;53450;42.584;23.366;2023-11-21T01:42:09;3.63;;;2.20;;
66593;SDS011;53450;42.584;23.366;2023-11-21T01:44:35;4.03;;;3.37;;
66593;SDS011;53450;42.584;23.366;2023-11-21T01:47:01;11.20;;;4.60;;
66593;SDS011;53450;42.584;23.366;2023-11-21T01:49:30;18.87;;;7.33;;
66593;SDS011;53450;42.584;23.366;2023-11-21T01:51:58;17.37;;;7.17;;
66593;SDS011;53450;42.584;23.366;2023-11-21T01:54:24;10.23;;;4.97;;
66593;SDS011;53450;42.584;23.366;2023-11-21T01:56:50;13.80;;;5.87;;
66593;SDS011;53450;42.584;23.366;2023-11-21T01:59:19;8.17;;;5.13;;
66593;SDS011;53450;42.584;23.366;2023-11-21T02:01:49;6.90;;;3.57;;
66593;SDS011;53450;42.584;23.366;2023-11-21T02:04:18;4.07;;;2.87;;
66593;SDS011;53450;42.584;23.366;2023-11-21T02:06:46;5.60;;;2.40;;
66593;SDS011;53450;42.584;23.366;2023-11-21T02:09:11;2.77;;;2.33;;
66593;SDS011;53450;42.584;23.366;2023-11-21T02:11:40;3.83;;;2.47;;
66593;SDS011;53450;42.584;23.366;2023-11-21T02:14:06;11.17;;;5.87;;
66593;SDS011;53450;42.584;23.366;2023-11-21T02:16:34;14.60;;;6.60;;
66593;SDS011;53450;42.584;23.366;2023-11-21T02:19:00;15.97;;;7.63;;
66593;SDS011;53450;42.584;23.366;2023-11-21T02:21:28;30.13;;;12.50;;
66593;SDS011;53450;42.584;23.366;2023-11-21T02:23:55;42.57;;;18.80;;
66593;SDS011;53450;42.584;23.366;2023-11-21T02:26:21;34.53;;;14.90;;
66593;SDS011;53450;42.584;23.366;2023-11-21T02:28:46;30.93;;;13.40;;
66593;SDS011;53450;42.584;23.366;2023-11-21T02:31:13;27.17;;;12.50;;
66593;SDS011;53450;42.584;23.366;2023-11-21T02:33:38;6.63;;;4.20;;
66593;SDS011;53450;42.584;23.366;2023-11-21T02:36:04;3.97;;;2.43;;
66593;SDS011;53450;42.584;23.366;2023-11-21T02:38:30;1.80;;;1.70;;
66593;SDS011;53450;42.584;23.366;2023-11-21T02:40:57;3.57;;;2.00;;
66593;SDS011;53450;42.584;23.366;2023-11-21T02:43:24;2.73;;;2.10;;
66593;SDS011;53450;42.584;23.366;2023-11-21T02:45:50;3.53;;;2.70;;
66593;SDS011;53450;42.584;23.366;2023-11-21T02:48:15;3.60;;;2.60;;
66593;SDS011;53450;42.584;23.366;2023-11-21T02:50:41;2.53;;;1.90;;
66593;SDS011;53450;42.584;23.366;2023-11-21T02:53:08;1.63;;;1.50;;
66593;SDS011;53450;42.584;23.366;2023-11-21T02:55:36;1.60;;;1.50;;
66593;SDS011;53450;42.584;23.366;2023-11-21T02:58:01;2.37;;;1.50;;
66593;SDS011;53450;42.584;23.366;2023-11-21T03:00:29;1.97;;;1.80;;
66593;SDS011;53450;42.584;23.366;2023-11-21T03:02:55;1.93;;;1.83;;
66593;SDS011;53450;42.584;23.366;2023-11-21T03:05:21;3.07;;;2.60;;
66593;SDS011;53450;42.584;23.366;2023-11-21T03:07:47;2.53;;;1.93;;
66593;SDS011;53450;42.584;23.366;2023-11-21T03:10:12;3.10;;;2.10;;
66593;SDS011;53450;42.584;23.366;2023-11-21T03:12:38;6.63;;;2.23;;
66593;SDS011;53450;42.584;23.366;2023-11-21T03:15:05;5.53;;;1.90;;
66593;SDS011;53450;42.584;23.366;2023-11-21T03:17:32;2.37;;;1.90;;
66593;SDS011;53450;42.584;23.366;2023-11-21T03:19:59;4.57;;;2.23;;
66593;SDS011;53450;42.584;23.366;2023-11-21T03:22:25;6.70;;;4.03;;
66593;SDS011;53450;42.584;23.366;2023-11-21T03:24:51;3.03;;;2.73;;
66593;SDS011;53450;42.584;23.366;2023-11-21T03:27:17;3.63;;;3.10;;
66593;SDS011;53450;42.584;23.366;2023-11-21T03:29:43;3.13;;;2.00;;
66593;SDS011;53450;42.584;23.366;2023-11-21T03:32:10;4.10;;;2.20;;
66593;SDS011;53450;42.584;23.366;2023-11-21T03:34:35;6.13;;;4.43;;
66593;SDS011;53450;42.584;23.366;2023-11-21T03:37:20;4.70;;;3.80;;
66593;SDS011;53450;42.584;23.366;2023-11-21T03:39:46;4.40;;;3.60;;
66593;SDS011;53450;42.584;23.366;2023-11-21T03:42:11;3.13;;;2.83;;
66593;SDS011;53450;42.584;23.366;2023-11-21T03:44:37;2.87;;;2.60;;
66593;SDS011;53450;42.584;23.366;2023-11-21T03:47:03;2.00;;;1.80;;
66593;SDS011;53450;42.584;23.366;2023-11-21T03:49:28;2.40;;;2.20;;
66593;SDS011;53450;42.584;23.366;2023-11-21T03:51:55;2.63;;;2.00;;
66593;SDS011;53450;42.584;23.366;2023-11-21T03:54:21;2.67;;;1.90;;
66593;SDS011;53450;42.584;23.366;2023-11-21T03:56:46;4.07;;;1.80;;
66593;SDS011;53450;42.584;23.366;2023-11-21T03:59:12;3.87;;;2.53;;
66593;SDS011;53450;42.584;23.366;2023-11-21T04:01:37;5.13;;;2.93;;
66593;SDS011;53450;42.584;23.366;2023-11-21T04:04:03;8.20;;;3.67;;
66593;SDS011;53450;42.584;23.366;2023-11-21T04:06:29;41.17;;;16.97;;
66593;SDS011;53450;42.584;23.366;2023-11-21T04:08:55;89.50;;;32.93;;
66593;SDS011;53450;42.584;23.366;2023-11-21T04:11:20;113.77;;;41.97;;
66593;SDS011;53450;42.584;23.366;2023-11-21T04:13:46;64.57;;;26.67;;
66593;SDS011;53450;42.584;23.366;2023-11-21T04:16:12;52.63;;;20.47;;
66593;SDS011;53450;42.584;23.366;2023-11-21T04:18:38;39.87;;;16.37;;
66593;SDS011;53450;42.584;23.366;2023-11-21T04:21:05;27.67;;;11.83;;
66593;SDS011;53450;42.584;23.366;2023-11-21T04:23:31;19.70;;;10.03;;
66593;SDS011;53450;42.584;23.366;2023-11-21T04:25:57;7.07;;;5.27;;
66593;SDS011;53450;42.584;23.366;2023-11-21T04:28:23;13.57;;;5.17;;
66593;SDS011;53450;42.584;23.366;2023-11-21T04:30:49;15.07;;;7.97;;
66593;SDS011;53450;42.584;23.366;2023-11-21T04:33:15;34.57;;;14.03;;
66593;SDS011;53450;42.584;23.366;2023-11-21T04:35:42;229.00;;;86.43;;
66593;SDS011;53450;42.584;23.366;2023-11-21T04:38:08;158.83;;;54.80;;
66593;SDS011;53450;42.584;23.366;2023-11-21T04:40:33;107.07;;;38.63;;
66593;SDS011;53450;42.584;23.366;2023-11-21T04:42:59;96.97;;;33.67;;
66593;SDS011;53450;42.584;23.366;2023-11-21T04:45:24;99.50;;;33.97;;
66593;SDS011;53450;42.584;23.366;2023-11-21T04:47:50;48.40;;;20.53;;
66593;SDS011;53450;42.584;23.366;2023-11-21T04:50:16;86.03;;;36.67;;
66593;SDS011;53450;42.584;23.366;2023-11-21T04:52:42;76.80;;;31.10;;
66593;SDS011;53450;42.584;23.366;2023-11-21T04:55:07;61.03;;;24.03;;
66593;SDS011;53450;42.584;23.366;2023-11-21T04:57:38;24.60;;;12.20;;
66593;SDS011;53450;42.584;23.366;2023-11-21T05:00:07;16.38;;;6.82;;
66593;SDS011;53450;42.584;23.366;2023-11-21T05:02:34;14.30;;;6.70;;
66593;SDS011;53450;42.584;23.366;2023-11-21T05:05:00;14.93;;;5.23;;
66593;SDS011;53450;42.584;23.366;2023-11-21T05:07:26;10.47;;;4.43;;
66593;SDS011;53450;42.584;23.366;2023-11-21T05:09:55;11.30;;;4.53;;
66593;SDS011;53450;42.584;23.366;2023-11-21T05:12:24;12.60;;;6.37;;
66593;SDS011;53450;42.584;23.366;2023-11-21T05:14:50;13.37;;;8.53;;
66593;SDS011;53450;42.584;23.366;2023-11-21T05:17:16;15.33;;;11.13;;
66593;SDS011;53450;42.584;23.366;2023-11-21T05:19:42;14.97;;;8.70;;
66593;SDS011;53450;42.584;23.366;2023-11-21T05:22:08;10.37;;;6.60;;
66593;SDS011;53450;42.584;23.366;2023-11-21T05:24:33;13.33;;;5.50;;
66593;SDS011;53450;42.584;23.366;2023-11-21T05:27:00;12.97;;;5.83;;
66593;SDS011;53450;42.584;23.366;2023-11-21T05:29:25;12.47;;;6.07;;
66593;SDS011;53450;42.584;23.366;2023-11-21T05:31:51;10.90;;;7.30;;
66593;SDS011;53450;42.584;23.366;2023-11-21T05:34:18;9.40;;;5.73;;
66593;SDS011;53450;42.584;23.366;2023-11-21T05:36:43;11.07;;;5.70;;
66593;SDS011;53450;42.584;23.366;2023-11-21T05:39:11;18.23;;;5.93;;
66593;SDS011;53450;42.584;23.366;2023-11-21T05:41:37;20.63;;;8.03;;
66593;SDS011;53450;42.584;23.366;2023-11-21T05:44:02;18.53;;;12.30;;
66593;SDS011;53450;42.584;23.366;2023-11-21T05:46:28;10.50;;;6.73;;
66593;SDS011;53450;42.584;23.366;2023-11-21T05:48:53;6.70;;;4.43;;
66593;SDS011;53450;42.584;23.366;2023-11-21T05:51:20;7.27;;;5.67;;
66593;SDS011;53450;42.584;23.366;2023-11-21T05:53:45;10.10;;;7.07;;
66593;SDS011;53450;42.584;23.366;2023-11-21T05:56:11;10.77;;;6.60;;
66593;SDS011;53450;42.584;23.366;2023-11-21T05:58:38;13.23;;;6.70;;
66593;SDS011;53450;42.584;23.366;2023-11-21T06:01:05;10.10;;;4.20;;
66593;SDS011;53450;42.584;23.366;2023-11-21T06:03:34;4.80;;;3.40;;
66593;SDS011;53450;42.584;23.366;2023-11-21T06:06:00;5.10;;;3.87;;
66593;SDS011;53450;42.584;23.366;2023-11-21T06:08:26;7.13;;;4.67;;
66593;SDS011;53450;42.584;23.366;2023-11-21T06:10:51;8.03;;;5.87;;
66593;SDS011;53450;42.584;23.366;2023-11-21T06:13:17;12.70;;;8.00;;
66593;SDS011;53450;42.584;23.366;2023-11-21T06:15:49;13.77;;;7.30;;
66593;SDS011;53450;42.584;23.366;2023-11-21T06:18:15;20.43;;;11.33;;
66593;SDS011;53450;42.584;23.366;2023-11-21T06:20:40;25.53;;;11.67;;
66593;SDS011;53450;42.584;23.366;2023-11-21T06:23:06;30.97;;;10.40;;
66593;SDS011;53450;42.584;23.366;2023-11-21T06:25:32;23.43;;;9.43;;
66593;SDS011;53450;42.584;23.366;2023-11-21T06:28:01;25.97;;;11.73;;
66593;SDS011;53450;42.584;23.366;2023-11-21T06:30:27;19.90;;;10.03;;
66593;SDS011;53450;42.584;23.366;2023-11-21T06:32:54;56.30;;;13.63;;
66593;SDS011;53450;42.584;23.366;2023-11-21T06:35:20;34.10;;;12.40;;
66593;SDS011;53450;42.584;23.366;2023-11-21T06:37:46;25.57;;;12.10;;
66593;SDS011;53450;42.584;23.366;2023-11-21T06:40:13;21.20;;;12.80;;
66593;SDS011;53450;42.584;23.366;2023-11-21T06:42:40;24.40;;;13.13;;
66593;SDS011;53450;42.584;23.366;2023-11-21T06:45:06;27.67;;;14.53;;
66593;SDS011;53450;42.584;23.366;2023-11-21T06:47:33;38.43;;;15.17;;
66593;SDS011;53450;42.584;23.366;2023-11-21T06:49:58;26.40;;;14.27;;
66593;SDS011;53450;42.584;23.366;2023-11-21T06:52:25;134.83;;;20.20;;
66593;SDS011;53450;42.584;23.366;2023-11-21T06:54:51;61.67;;;17.10;;
66593;SDS011;53450;42.584;23.366;2023-11-21T06:57:16;58.80;;;16.90;;
66593;SDS011;53450;42.584;23.366;2023-11-21T06:59:42;41.17;;;15.73;;
66593;SDS011;53450;42.584;23.366;2023-11-21T07:02:08;31.67;;;15.67;;
66593;SDS011;53450;42.584;23.366;2023-11-21T07:04:34;31.27;;;14.27;;
66593;SDS011;53450;42.584;23.366;2023-11-21T07:07:03;27.40;;;16.30;;
66593;SDS011;53450;42.584;23.366;2023-11-21T07:09:30;41.77;;;17.73;;
66593;SDS011;53450;42.584;23.366;2023-11-21T07:11:56;31.07;;;17.43;;
66593;SDS011;53450;42.584;23.366;2023-11-21T07:14:21;36.63;;;18.80;;
66593;SDS011;53450;42.584;23.366;2023-11-21T07:16:47;51.97;;;26.80;;
66593;SDS011;53450;42.584;23.366;2023-11-21T07:19:13;25.97;;;15.70;;
66593;SDS011;53450;42.584;23.366;2023-11-21T07:21:39;19.40;;;12.88;;
66593;SDS011;53450;42.584;23.366;2023-11-21T07:24:06;19.80;;;11.00;;
66593;SDS011;53450;42.584;23.366;2023-11-21T07:26:32;29.42;;;11.15;;
66593;SDS011;53450;42.584;23.366;2023-11-21T07:28:59;15.25;;;9.27;;
66593;SDS011;53450;42.584;23.366;2023-11-21T07:31:25;7.70;;;5.32;;
66593;SDS011;53450;42.584;23.366;2023-11-21T07:33:51;12.40;;;7.10;;
66593;SDS011;53450;42.584;23.366;2023-11-21T07:36:18;14.75;;;8.32;;
66593;SDS011;53450;42.584;23.366;2023-11-21T07:38:46;15.88;;;7.63;;
66593;SDS011;53450;42.584;23.366;2023-11-21T07:41:12;14.55;;;7.65;;
66593;SDS011;53450;42.584;23.366;2023-11-21T07:43:41;33.20;;;19.52;;
66593;SDS011;53450;42.584;23.366;2023-11-21T07:46:07;18.92;;;10.27;;
66593;SDS011;53450;42.584;23.366;2023-11-21T07:48:33;13.27;;;7.18;;
66593;SDS011;53450;42.584;23.366;2023-11-21T07:50:59;16.63;;;8.75;;
66593;SDS011;53450;42.584;23.366;2023-11-21T07:53:26;13.40;;;6.82;;
66593;SDS011;53450;42.584;23.366;2023-11-21T07:55:54;15.05;;;6.72;;
66593;SDS011;53450;42.584;23.366;2023-11-21T07:58:20;12.80;;;7.43;;
66593;SDS011;53450;42.584;23.366;2023-11-21T08:00:46;16.95;;;7.00;;
66593;SDS011;53450;42.584;23.366;2023-11-21T08:03:15;12.10;;;6.63;;
66593;SDS011;53450;42.584;23.366;2023-11-21T08:05:41;7.93;;;4.75;;
66593;SDS011;53450;42.584;23.366;2023-11-21T08:08:07;7.32;;;4.30;;
66593;SDS011;53450;42.584;23.366;2023-11-21T08:10:33;26.13;;;7.95;;
66593;SDS011;53450;42.584;23.366;2023-11-21T08:12:58;14.57;;;6.82;;
66593;SDS011;53450;42.584;23.366;2023-11-21T08:15:24;9.85;;;5.32;;
66593;SDS011;53450;42.584;23.366;2023-11-21T08:17:50;9.25;;;5.22;;
66593;SDS011;53450;42.584;23.366;2023-11-21T08:20:15;49.30;;;11.30;;
66593;SDS011;53450;42.584;23.366;2023-11-21T08:22:42;12.63;;;5.65;;
66593;SDS011;53450;42.584;23.366;2023-11-21T08:25:08;10.02;;;3.20;;
66593;SDS011;53450;42.584;23.366;2023-11-21T08:27:34;4.88;;;3.00;;
66593;SDS011;53450;42.584;23.366;2023-11-21T08:30:00;6.25;;;2.45;;
66593;SDS011;53450;42.584;23.366;2023-11-21T08:32:26;8.70;;;2.65;;
66593;SDS011;53450;42.584;23.366;2023-11-21T08:34:51;22.05;;;5.07;;
66593;SDS011;53450;42.584;23.366;2023-11-21T08:37:17;6.18;;;4.60;;
66593;SDS011;53450;42.584;23.366;2023-11-21T08:39:46;12.15;;;4.75;;
66593;SDS011;53450;42.584;23.366;2023-11-21T08:42:13;5.80;;;3.47;;
66593;SDS011;53450;42.584;23.366;2023-11-21T08:44:40;3.50;;;2.80;;
66593;SDS011;53450;42.584;23.366;2023-11-21T08:47:06;3.40;;;2.58;;
66593;SDS011;53450;42.584;23.366;2023-11-21T08:49:32;7.15;;;3.90;;
66593;SDS011;53450;42.584;23.366;2023-11-21T08:52:00;6.07;;;3.75;;
66593;SDS011;53450;42.584;23.366;2023-11-21T08:54:26;6.78;;;4.15;;
66593;SDS011;53450;42.584;23.366;2023-11-21T08:56:52;6.07;;;4.30;;
66593;SDS011;53450;42.584;23.366;2023-11-21T08:59:19;5.30;;;4.32;;
66593;SDS011;53450;42.584;23.366;2023-11-21T09:01:45;6.90;;;4.63;;
66593;SDS011;53450;42.584;23.366;2023-11-21T09:04:11;7.90;;;4.75;;
66593;SDS011;53450;42.584;23.366;2023-11-21T09:06:38;9.68;;;3.35;;
66593;SDS011;53450;42.584;23.366;2023-11-21T09:09:05;6.63;;;3.85;;
66593;SDS011;53450;42.584;23.366;2023-11-21T09:11:34;5.18;;;3.20;;
66593;SDS011;53450;42.584;23.366;2023-11-21T09:14:00;12.00;;;5.68;;
66593;SDS011;53450;42.584;23.366;2023-11-21T09:16:26;12.15;;;6.82;;
66593;SDS011;53450;42.584;23.366;2023-11-21T09:18:52;9.55;;;6.95;;
66593;SDS011;53450;42.584;23.366;2023-11-21T09:21:17;13.43;;;8.40;;
66593;SDS011;53450;42.584;23.366;2023-11-21T09:23:46;21.88;;;8.63;;
66593;SDS011;53450;42.584;23.366;2023-11-21T09:26:12;13.38;;;7.63;;
66593;SDS011;53450;42.584;23.366;2023-11-21T09:28:37;15.98;;;7.40;;
66593;SDS011;53450;42.584;23.366;2023-11-21T09:31:04;10.82;;;6.85;;
66593;SDS011;53450;42.584;23.366;2023-11-21T09:33:30;13.35;;;6.88;;
66593;SDS011;53450;42.584;23.366;2023-11-21T09:35:56;13.73;;;6.85;;
66593;SDS011;53450;42.584;23.366;2023-11-21T09:38:22;20.38;;;9.93;;
66593;SDS011;53450;42.584;23.366;2023-11-21T09:40:48;21.17;;;10.65;;
66593;SDS011;53450;42.584;23.366;2023-11-21T09:43:18;25.15;;;9.32;;
66593;SDS011;53450;42.584;23.366;2023-11-21T09:45:47;58.15;;;32.28;;
66593;SDS011;53450;42.584;23.366;2023-11-21T09:48:15;12.95;;;6.30;;
66593;SDS011;53450;42.584;23.366;2023-11-21T09:50:42;19.27;;;9.82;;
66593;SDS011;53450;42.584;23.366;2023-11-21T09:53:11;14.52;;;10.43;;
66593;SDS011;53450;42.584;23.366;2023-11-21T09:55:42;11.40;;;6.88;;
66593;SDS011;53450;42.584;23.366;2023-11-21T09:58:09;19.20;;;9.63;;
66593;SDS011;53450;42.584;23.366;2023-11-21T10:00:41;13.00;;;5.95;;
66593;SDS011;53450;42.584;23.366;2023-11-21T10:03:08;18.90;;;10.43;;
66593;SDS011;53450;42.584;23.366;2023-11-21T10:05:35;23.60;;;12.57;;
66593;SDS011;53450;42.584;23.366;2023-11-21T10:08:03;24.52;;;13.07;;
66593;SDS011;53450;42.584;23.366;2023-11-21T10:10:31;31.60;;;13.88;;
66593;SDS011;53450;42.584;23.366;2023-11-21T10:12:57;21.50;;;11.90;;
66593;SDS011;53450;42.584;23.366;2023-11-21T10:15:28;28.27;;;13.65;;
66593;SDS011;53450;42.584;23.366;2023-11-21T10:17:55;21.50;;;9.75;;
66593;SDS011;53450;42.584;23.366;2023-11-21T10:20:21;21.65;;;9.80;;
66593;SDS011;53450;42.584;23.366;2023-11-21T10:22:49;17.58;;;7.45;;
66593;SDS011;53450;42.584;23.366;2023-11-21T10:25:15;12.52;;;6.65;;
66593;SDS011;53450;42.584;23.366;2023-11-21T10:27:42;14.25;;;7.43;;
66593;SDS011;53450;42.584;23.366;2023-11-21T10:30:09;15.88;;;7.80;;
66593;SDS011;53450;42.584;23.366;2023-11-21T10:32:41;15.98;;;7.13;;
66593;SDS011;53450;42.584;23.366;2023-11-21T10:35:07;13.45;;;8.60;;
66593;SDS011;53450;42.584;23.366;2023-11-21T10:37:38;27.02;;;11.45;;
66593;SDS011;53450;42.584;23.366;2023-11-21T10:40:07;22.23;;;9.82;;
66593;SDS011;53450;42.584;23.366;2023-11-21T10:42:37;14.40;;;8.50;;
66593;SDS011;53450;42.584;23.366;2023-11-21T10:45:04;41.47;;;18.50;;
66593;SDS011;53450;42.584;23.366;2023-11-21T10:47:37;25.42;;;11.70;;
66593;SDS011;53450;42.584;23.366;2023-11-21T10:50:04;18.45;;;11.98;;
66593;SDS011;53450;42.584;23.366;2023-11-21T10:52:30;21.42;;;11.40;;
66593;SDS011;53450;42.584;23.366;2023-11-21T10:54:56;18.75;;;8.60;;
66593;SDS011;53450;42.584;23.366;2023-11-21T10:57:24;18.02;;;9.55;;
66593;SDS011;53450;42.584;23.366;2023-11-21T10:59:50;17.13;;;9.55;;
66593;SDS011;53450;42.584;23.366;2023-11-21T11:02:25;16.63;;;10.30;;
66593;SDS011;53450;42.584;23.366;2023-11-21T11:04:53;19.38;;;9.52;;
66593;SDS011;53450;42.584;23.366;2023-11-21T11:07:26;16.50;;;9.13;;
66593;SDS011;53450;42.584;23.366;2023-11-21T11:09:55;19.67;;;10.15;;
66593;SDS011;53450;42.584;23.366;2023-11-21T11:12:24;25.08;;;9.27;;
66593;SDS011;53450;42.584;23.366;2023-11-21T11:14:50;26.02;;;9.43;;
66593;SDS011;53450;42.584;23.366;2023-11-21T11:17:16;28.63;;;14.25;;
66593;SDS011;53450;42.584;23.366;2023-11-21T11:19:46;21.23;;;12.23;;
66593;SDS011;53450;42.584;23.366;2023-11-21T11:22:29;37.75;;;17.20;;
66593;SDS011;53450;42.584;23.366;2023-11-21T11:30:26;23.20;;;11.18;;
66593;SDS011;53450;42.584;23.366;2023-11-21T11:35:19;17.35;;;6.28;;
66593;SDS011;53450;42.584;23.366;2023-11-21T11:40:14;39.70;;;16.25;;
66593;SDS011;53450;42.584;23.366;2023-11-21T11:42:54;23.60;;;12.00;;
66593;SDS011;53450;42.584;23.366;2023-11-21T11:45:23;24.83;;;13.27;;
66593;SDS011;53450;42.584;23.366;2023-11-21T11:47:57;25.45;;;11.73;;
66593;SDS011;53450;42.584;23.366;2023-11-21T11:50:23;22.65;;;12.30;;
66593;SDS011;53450;42.584;23.366;2023-11-21T11:52:50;26.63;;;11.05;;
66593;SDS011;53450;42.584;23.366;2023-11-21T11:55:19;25.05;;;12.80;;
66593;SDS011;53450;42.584;23.366;2023-11-21T11:57:47;18.02;;;10.32;;
66593;SDS011;53450;42.584;23.366;2023-11-21T12:02:51;31.35;;;12.10;;
66593;SDS011;53450;42.584;23.366;2023-11-21T12:05:18;25.88;;;12.82;;
66593;SDS011;53450;42.584;23.366;2023-11-21T12:07:52;24.75;;;9.93;;
66593;SDS011;53450;42.584;23.366;2023-11-21T12:13:02;30.48;;;14.20;;
66593;SDS011;53450;42.584;23.366;2023-11-21T12:15:30;35.58;;;15.10;;
66593;SDS011;53450;42.584;23.366;2023-11-21T12:17:56;32.85;;;14.20;;
66593;SDS011;53450;42.584;23.366;2023-11-21T12:20:24;38.72;;;16.27;;
66593;SDS011;53450;42.584;23.366;2023-11-21T12:22:51;33.58;;;15.48;;
66593;SDS011;53450;42.584;23.366;2023-11-21T12:27:52;23.92;;;13.15;;
66593;SDS011;53450;42.584;23.366;2023-11-21T12:30:21;21.48;;;10.85;;
66593;SDS011;53450;42.584;23.366;2023-11-21T12:32:49;20.92;;;9.27;;
66593;SDS011;53450;42.584;23.366;2023-11-21T12:35:19;21.30;;;11.05;;
66593;SDS011;53450;42.584;23.366;2023-11-21T12:37:49;15.73;;;10.10;;
66593;SDS011;53450;42.584;23.366;2023-11-21T12:40:17;28.17;;;9.20;;
66593;SDS011;53450;42.584;23.366;2023-11-21T12:42:51;31.58;;;17.20;;
66593;SDS011;53450;42.584;23.366;2023-11-21T12:45:19;23.50;;;10.88;;
66593;SDS011;53450;42.584;23.366;2023-11-21T12:47:47;23.25;;;12.30;;
66593;SDS011;53450;42.584;23.366;2023-11-21T12:50:15;40.45;;;12.02;;
66593;SDS011;53450;42.584;23.366;2023-11-21T12:52:41;29.58;;;14.50;;
66593;SDS011;53450;42.584;23.366;2023-11-21T12:55:17;32.65;;;15.35;;
66593;SDS011;53450;42.584;23.366;2023-11-21T12:57:44;29.20;;;16.02;;
66593;SDS011;53450;42.584;23.366;2023-11-21T13:00:11;42.50;;;17.35;;
66593;SDS011;53450;42.584;23.366;2023-11-21T13:02:41;130.02;;;46.60;;
66593;SDS011;53450;42.584;23.366;2023-11-21T13:05:08;95.32;;;26.75;;
66593;SDS011;53450;42.584;23.366;2023-11-21T13:07:44;49.88;;;22.35;;
66593;SDS011;53450;42.584;23.366;2023-11-21T13:10:16;38.30;;;18.45;;
66593;SDS011;53450;42.584;23.366;2023-11-21T13:12:45;51.25;;;22.73;;
66593;SDS011;53450;42.584;23.366;2023-11-21T13:15:15;35.35;;;20.08;;
66593;SDS011;53450;42.584;23.366;2023-11-21T13:17:45;42.70;;;18.20;;
66593;SDS011;53450;42.584;23.366;2023-11-21T13:20:13;34.05;;;17.55;;
66593;SDS011;53450;42.584;23.366;2023-11-21T13:22:49;32.75;;;18.67;;
66593;SDS011;53450;42.584;23.366;2023-11-21T13:25:15;39.75;;;17.73;;
66593;SDS011;53450;42.584;23.366;2023-11-21T13:27:46;40.10;;;19.48;;
66593;SDS011;53450;42.584;23.366;2023-11-21T13:30:12;30.05;;;18.23;;
66593;SDS011;53450;42.584;23.366;2023-11-21T13:32:45;44.80;;;23.63;;
66593;SDS011;53450;42.584;23.366;2023-11-21T13:35:17;36.15;;;19.35;;
66593;SDS011;53450;42.584;23.366;2023-11-21T13:37:48;35.55;;;17.40;;
66593;SDS011;53450;42.584;23.366;2023-11-21T13:42:47;36.63;;;18.75;;
66593;SDS011;53450;42.584;23.366;2023-11-21T13:45:14;49.50;;;29.75;;
66593;SDS011;53450;42.584;23.366;2023-11-21T13:47:41;54.95;;;26.95;;
66593;SDS011;53450;42.584;23.366;2023-11-21T13:50:07;42.03;;;22.67;;
66593;SDS011;53450;42.584;23.366;2023-11-21T13:52:42;29.55;;;17.90;;
66593;SDS011;53450;42.584;23.366;2023-11-21T13:55:12;37.28;;;16.92;;
66593;SDS011;53450;42.584;23.366;2023-11-21T13:57:41;34.05;;;16.77;;
66593;SDS011;53450;42.584;23.366;2023-11-21T14:02:15;39.97;;;22.15;;
66593;SDS011;53450;42.584;23.366;2023-11-21T14:04:44;36.55;;;16.70;;
66593;SDS011;53450;42.584;23.366;2023-11-21T14:07:25;31.75;;;17.13;;
66593;SDS011;53450;42.584;23.366;2023-11-21T14:10:11;74.00;;;39.03;;
66593;SDS011;53450;42.584;23.366;2023-11-21T14:12:39;57.42;;;23.98;;
66593;SDS011;53450;42.584;23.366;2023-11-21T14:15:08;49.75;;;26.88;;
66593;SDS011;53450;42.584;23.366;2023-11-21T14:17:35;40.42;;;20.90;;
66593;SDS011;53450;42.584;23.366;2023-11-21T14:20:03;28.17;;;16.65;;
66593;SDS011;53450;42.584;23.366;2023-11-21T14:22:30;36.13;;;20.20;;
66593;SDS011;53450;42.584;23.366;2023-11-21T14:24:56;49.55;;;22.25;;
66593;SDS011;53450;42.584;23.366;2023-11-21T14:27:25;38.13;;;17.30;;
66593;SDS011;53450;42.584;23.366;2023-11-21T14:29:50;34.30;;;17.90;;
66593;SDS011;53450;42.584;23.366;2023-11-21T14:32:17;115.70;;;54.95;;
66593;SDS011;53450;42.584;23.366;2023-11-21T14:34:43;125.13;;;53.83;;
66593;SDS011;53450;42.584;23.366;2023-11-21T14:37:12;141.25;;;63.90;;
66593;SDS011;53450;42.584;23.366;2023-11-21T14:39:39;190.90;;;88.60;;
66593;SDS011;53450;42.584;23.366;2023-11-21T14:42:09;151.18;;;66.45;;
66593;SDS011;53450;42.584;23.366;2023-11-21T14:44:35;153.57;;;65.82;;